Time;durP1;ratioP1;P1;durP2;ratioP2;P2;SDS_P1;SDS_P2;PMS_P1;PMS_P2;Temp;Humidity;BMP_temperature;BMP_pressure;BME280_temperature;BME280_humidity;BME280_pressure;Samples;Min_cycle;Max_cycle;Signal;HPM_P1;HPM_P2
2024/04/03 00:01:45;;;;;;;4.10;1.20;;;10.20;99.90;;;;;;6194847;28;20070;-78
2024/04/03 00:04:46;;;;;;;5.70;1.10;;;10.20;99.90;;;;;;6194832;28;20556;-79
2024/04/03 00:07:46;;;;;;;6.30;1.25;;;10.20;99.90;;;;;;6195060;28;20054;-79
2024/04/03 00:10:47;;;;;;;6.45;1.10;;;10.20;99.90;;;;;;6193053;28;20070;-78
2024/04/03 00:13:48;;;;;;;4.68;1.20;;;10.20;99.90;;;;;;6189333;28;20058;-79
2024/04/03 00:16:48;;;;;;;5.22;1.30;;;10.30;99.90;;;;;;6194822;28;20073;-80
2024/04/03 00:19:49;;;;;;;3.88;0.95;;;10.20;99.90;;;;;;6194462;28;20065;-80
2024/04/03 00:22:50;;;;;;;4.55;1.05;;;10.20;99.90;;;;;;6194802;28;20062;-80
2024/04/03 00:25:50;;;;;;;4.40;0.80;;;10.30;99.90;;;;;;6178380;28;20469;-80
2024/04/03 00:28:51;;;;;;;3.15;0.85;;;10.30;99.90;;;;;;6188476;28;20494;-80
2024/04/03 00:31:51;;;;;;;3.05;0.90;;;10.30;99.90;;;;;;6178067;28;20051;-80
2024/04/03 00:34:52;;;;;;;4.30;1.00;;;10.30;99.90;;;;;;6194240;28;20058;-80
2024/04/03 00:37:53;;;;;;;3.78;0.90;;;10.30;99.90;;;;;;6193723;28;20694;-79
2024/04/03 00:40:54;;;;;;;5.63;1.00;;;10.30;99.90;;;;;;6194180;28;20058;-80
2024/04/03 00:43:54;;;;;;;3.60;0.82;;;10.30;99.90;;;;;;6188508;28;20073;-80
2024/04/03 00:46:55;;;;;;;4.57;0.85;;;10.30;99.90;;;;;;6194417;28;20064;-80
2024/04/03 00:49:55;;;;;;;2.25;0.60;;;10.40;99.90;;;;;;6193923;28;20062;-80
2024/04/03 00:52:56;;;;;;;4.55;0.85;;;10.40;99.90;;;;;;6193771;28;20524;-80
2024/04/03 00:55:57;;;;;;;3.80;0.82;;;10.30;99.90;;;;;;6193637;28;20066;-80
2024/04/03 00:58:57;;;;;;;3.42;0.70;;;10.40;99.90;;;;;;6178578;28;20104;-80
2024/04/03 01:02:00;;;;;;;3.95;0.80;;;10.30;99.90;;;;;;6193785;28;20058;-79
2024/04/03 01:05:00;;;;;;;3.55;0.85;;;10.40;99.90;;;;;;6193765;28;20108;-77
2024/04/03 01:08:01;;;;;;;5.35;0.85;;;10.30;99.90;;;;;;6193387;28;20062;-77
2024/04/03 01:11:01;;;;;;;6.60;1.15;;;10.40;99.90;;;;;;6191265;28;20119;-77
2024/04/03 01:14:02;;;;;;;3.63;0.82;;;10.30;99.90;;;;;;6172267;28;20525;-79
2024/04/03 01:17:03;;;;;;;3.28;0.85;;;10.40;99.90;;;;;;6193437;28;20058;-78
2024/04/03 01:20:06;;;;;;;3.35;0.88;;;10.40;99.90;;;;;;6193231;28;20069;-78
2024/04/03 01:23:07;;;;;;;4.32;0.90;;;10.40;99.90;;;;;;6193517;28;20108;-79
2024/04/03 01:26:07;;;;;;;2.97;0.75;;;10.30;99.90;;;;;;6177086;28;20062;-79
2024/04/03 01:29:08;;;;;;;2.92;0.88;;;10.30;99.90;;;;;;6187692;28;20391;-78
2024/04/03 01:32:09;;;;;;;2.78;0.68;;;10.40;99.90;;;;;;6177164;28;20061;-78
2024/04/03 01:35:09;;;;;;;3.83;0.80;;;10.40;99.90;;;;;;6177212;28;20065;-79
2024/04/03 01:38:10;;;;;;;3.13;0.73;;;10.40;99.90;;;;;;6177119;28;20077;-79
2024/04/03 01:41:11;;;;;;;3.60;0.80;;;10.40;99.90;;;;;;6192930;28;20062;-78
2024/04/03 01:44:11;;;;;;;3.88;0.93;;;10.40;99.90;;;;;;6192842;28;20063;-79
2024/04/03 01:47:12;;;;;;;2.78;0.63;;;10.40;99.90;;;;;;6177465;28;20070;-78
2024/04/03 01:50:12;;;;;;;4.82;0.85;;;10.40;99.90;;;;;;6192876;28;20061;-78
2024/04/03 01:53:13;;;;;;;3.65;0.70;;;10.40;99.90;;;;;;6177129;28;20101;-79
2024/04/03 01:56:14;;;;;;;6.07;1.05;;;10.40;99.90;;;;;;6192583;28;20069;-79
2024/04/03 01:59:14;;;;;;;2.95;0.70;;;10.40;99.90;;;;;;6183102;28;20046;-78
2024/04/03 02:02:15;;;;;;;4.10;0.70;;;10.40;99.90;;;;;;6190654;28;20081;-79
2024/04/03 02:05:16;;;;;;;3.92;0.70;;;10.40;99.90;;;;;;6176322;28;20058;-78
2024/04/03 02:08:16;;;;;;;4.68;0.90;;;10.50;99.90;;;;;;6174410;28;20144;-79
2024/04/03 02:11:18;;;;;;;4.65;0.80;;;10.50;99.90;;;;;;6192735;28;20663;-79
2024/04/03 02:14:20;;;;;;;3.05;0.88;;;10.50;99.90;;;;;;6192667;28;20194;-79
2024/04/03 02:17:21;;;;;;;3.60;0.80;;;10.50;99.90;;;;;;6193096;28;20065;-79
2024/04/03 02:20:21;;;;;;;3.22;0.90;;;10.40;99.90;;;;;;6192569;28;20054;-79
2024/04/03 02:23:22;;;;;;;5.20;0.93;;;10.50;99.90;;;;;;6193255;28;20062;-79
2024/04/03 02:26:22;;;;;;;3.92;0.82;;;10.50;99.90;;;;;;6197273;28;20069;-79
2024/04/03 02:29:23;;;;;;;3.22;0.82;;;10.50;99.90;;;;;;6182385;28;20466;-79
2024/04/03 02:32:24;;;;;;;5.50;1.48;;;10.50;99.90;;;;;;6196611;28;20054;-79
2024/04/03 02:35:24;;;;;;;5.85;1.13;;;10.50;99.90;;;;;;6180809;28;20055;-79
2024/04/03 02:38:25;;;;;;;3.58;1.17;;;10.50;99.90;;;;;;6178580;28;20050;-78
2024/04/03 02:41:25;;;;;;;3.75;0.80;;;10.50;99.90;;;;;;6180858;28;20490;-80
2024/04/03 02:44:26;;;;;;;6.28;1.30;;;10.50;99.90;;;;;;6191394;28;20058;-79
2024/04/03 02:47:27;;;;;;;6.28;1.30;;;10.50;99.90;;;;;;6196535;28;20057;-79
2024/04/03 02:50:27;;;;;;;4.45;1.00;;;10.50;99.90;;;;;;6196267;28;20399;-79
2024/04/03 02:53:28;;;;;;;4.57;1.20;;;10.50;99.90;;;;;;6180225;28;20535;-80
2024/04/03 02:56:29;;;;;;;4.85;1.00;;;10.50;99.90;;;;;;6196349;28;20070;-80
2024/04/03 02:59:29;;;;;;;3.90;1.10;;;10.50;99.90;;;;;;6186712;28;20120;-80
2024/04/03 03:02:30;;;;;;;5.53;1.30;;;10.50;99.90;;;;;;6196842;28;20465;-80
2024/04/03 03:05:30;;;;;;;5.60;1.20;;;10.60;99.90;;;;;;6196348;28;20058;-80
2024/04/03 03:08:31;;;;;;;6.40;1.40;;;10.60;99.90;;;;;;6180305;28;20054;-78
2024/04/03 03:11:32;;;;;;;6.00;1.25;;;10.60;99.90;;;;;;6180401;28;20124;-77
2024/04/03 03:14:32;;;;;;;4.75;1.23;;;10.60;99.90;;;;;;6182787;28;20124;-78
2024/04/03 03:17:33;;;;;;;7.03;1.30;;;10.60;99.90;;;;;;6196368;28;20116;-78
2024/04/03 03:20:33;;;;;;;6.00;1.10;;;10.60;99.90;;;;;;6195966;28;20474;-78
2024/04/03 03:23:34;;;;;;;4.25;1.00;;;10.70;99.90;;;;;;6195671;28;20112;-78
2024/04/03 03:26:35;;;;;;;3.83;0.93;;;10.70;99.90;;;;;;6195668;28;20054;-77
2024/04/03 03:29:35;;;;;;;5.80;1.00;;;10.70;99.90;;;;;;6181618;28;20050;-78
2024/04/03 03:32:36;;;;;;;4.75;1.10;;;10.70;99.90;;;;;;6179228;28;20512;-78
2024/04/03 03:35:36;;;;;;;7.45;1.00;;;10.70;99.90;;;;;;6194659;28;20057;-79
2024/04/03 03:38:37;;;;;;;5.97;1.35;;;10.80;99.90;;;;;;6193925;28;20054;-78
2024/04/03 03:41:38;;;;;;;5.07;1.23;;;10.80;99.90;;;;;;6195527;28;20494;-78
2024/04/03 03:44:38;;;;;;;4.18;1.20;;;10.80;99.90;;;;;;6174894;28;20062;-78
2024/04/03 03:47:39;;;;;;;7.25;1.35;;;10.80;99.90;;;;;;6195394;28;20054;-78
2024/04/03 03:53:59;;;;;;;7.47;1.40;;;10.80;99.90;;;;;;6195373;28;20069;-79
2024/04/03 03:57:00;;;;;;;5.85;1.30;;;10.80;99.90;;;;;;6178452;28;20068;-78
2024/04/03 04:00:00;;;;;;;4.10;1.20;;;10.90;99.90;;;;;;6180732;28;20058;-78
2024/04/03 04:03:01;;;;;;;7.72;1.30;;;10.80;99.90;;;;;;6192719;28;20058;-80
2024/04/03 04:06:02;;;;;;;4.88;1.10;;;10.90;99.90;;;;;;6194545;28;20058;-80
2024/04/03 04:09:02;;;;;;;4.07;1.15;;;10.80;99.90;;;;;;6192802;28;20046;-79
2024/04/03 04:12:03;;;;;;;6.97;1.23;;;10.90;99.90;;;;;;6178654;28;20066;-80
2024/04/03 04:15:05;;;;;;;6.80;1.38;;;10.90;99.90;;;;;;6180846;28;20066;-78
2024/04/03 04:18:05;;;;;;;5.80;1.20;;;10.90;99.90;;;;;;6194665;28;20077;-78
2024/04/03 04:21:06;;;;;;;6.40;1.05;;;10.90;99.90;;;;;;6177857;28;20054;-78
2024/04/03 04:24:07;;;;;;;7.25;1.33;;;10.90;99.90;;;;;;6194617;28;20057;-79
2024/04/03 04:27:08;;;;;;;6.07;1.15;;;11.00;99.90;;;;;;6194422;28;20046;-78
2024/04/03 04:30:08;;;;;;;4.22;0.95;;;11.10;99.90;;;;;;6189030;28;20062;-79
2024/04/03 04:33:09;;;;;;;5.53;1.45;;;11.00;99.90;;;;;;6194365;28;20062;-79
2024/04/03 04:36:09;;;;;;;7.50;1.45;;;11.00;99.90;;;;;;6178428;28;20058;-79
2024/04/03 04:39:10;;;;;;;5.03;1.58;;;11.00;99.90;;;;;;6194666;28;20054;-79
2024/04/03 04:42:11;;;;;;;7.35;1.38;;;11.00;99.90;;;;;;6194229;28;20050;-79
2024/04/03 04:45:12;;;;;;;6.30;1.15;;;11.00;99.90;;;;;;6175564;28;20457;-79
2024/04/03 04:48:13;;;;;;;3.85;1.08;;;11.00;99.90;;;;;;6193121;28;20426;-78
2024/04/03 04:51:19;;;;;;;6.10;1.35;;;11.10;99.90;;;;;;6193689;28;20058;-79
2024/04/03 04:54:19;;;;;;;6.72;1.27;;;11.20;99.90;;;;;;6170105;28;20062;-78
2024/04/03 04:57:20;;;;;;;4.18;1.20;;;11.20;99.90;;;;;;6192940;28;20150;-79
2024/04/03 05:00:21;;;;;;;6.22;1.30;;;11.20;99.90;;;;;;6172611;28;20129;-79
2024/04/03 05:03:21;;;;;;;7.60;1.52;;;11.20;99.90;;;;;;6194110;28;20514;-79
2024/04/03 05:06:22;;;;;;;6.88;1.60;;;11.20;99.90;;;;;;6193799;28;20046;-78
2024/04/03 05:09:23;;;;;;;6.03;1.27;;;11.20;99.90;;;;;;6191757;28;20140;-79
2024/04/03 05:12:23;;;;;;;7.05;1.88;;;11.30;99.90;;;;;;6193920;28;20064;-79
2024/04/03 05:15:24;;;;;;;9.60;1.80;;;11.30;99.90;;;;;;6175446;28;20058;-79
2024/04/03 05:18:25;;;;;;;10.10;1.70;;;11.30;99.90;;;;;;6193497;28;20506;-79
2024/04/03 05:21:25;;;;;;;7.95;1.90;;;11.30;99.90;;;;;;6177576;28;20568;-78
2024/04/03 05:24:26;;;;;;;7.35;1.95;;;11.30;99.90;;;;;;6193736;28;20074;-79
2024/04/03 05:27:27;;;;;;;8.23;1.77;;;11.30;99.90;;;;;;6193171;28;20059;-78
2024/04/03 05:30:28;;;;;;;12.20;1.88;;;11.30;99.90;;;;;;6183640;28;20062;-78
2024/04/03 05:33:29;;;;;;;9.15;1.48;;;11.30;99.90;;;;;;6193123;28;20514;-78
2024/04/03 05:36:29;;;;;;;6.15;1.27;;;11.30;99.90;;;;;;6193757;28;20054;-79
2024/04/03 05:39:30;;;;;;;6.88;1.48;;;11.20;99.90;;;;;;6193579;28;20054;-79
2024/04/03 05:42:31;;;;;;;5.30;1.23;;;11.40;99.90;;;;;;6176947;28;20413;-78
2024/04/03 05:45:33;;;;;;;7.43;1.52;;;11.30;99.90;;;;;;6182947;28;20066;-78
2024/04/03 05:48:33;;;;;;;8.73;1.73;;;11.30;99.90;;;;;;6193351;28;20097;-79
2024/04/03 05:51:34;;;;;;;6.95;1.25;;;11.40;99.90;;;;;;6193159;28;20506;-78
2024/04/03 05:54:34;;;;;;;6.18;1.50;;;11.40;99.90;;;;;;6192899;28;20409;-79
2024/04/03 05:57:35;;;;;;;4.38;1.27;;;11.40;99.90;;;;;;6176796;28;20063;-78
2024/04/03 06:00:36;;;;;;;6.50;1.60;;;11.40;99.90;;;;;;6183071;28;20161;-80
2024/04/03 06:03:37;;;;;;;7.78;1.52;;;11.50;99.90;;;;;;6197887;28;20061;-79
2024/04/03 06:06:39;;;;;;;6.75;1.48;;;11.50;99.90;;;;;;6197958;28;20066;-80
2024/04/03 06:09:39;;;;;;;5.32;1.30;;;11.60;99.90;;;;;;6179678;28;20058;-80
2024/04/03 06:12:40;;;;;;;5.88;1.30;;;11.70;99.90;;;;;;6197599;28;20062;-80
2024/04/03 06:15:40;;;;;;;6.55;1.40;;;11.80;99.90;;;;;;6179123;28;20058;-79
2024/04/03 06:18:41;;;;;;;6.20;1.40;;;11.80;99.90;;;;;;6197472;28;20498;-80
2024/04/03 06:21:42;;;;;;;7.63;1.48;;;11.90;99.90;;;;;;6197320;28;20399;-79
2024/04/03 06:24:43;;;;;;;6.57;1.50;;;11.80;99.90;;;;;;6197274;28;20418;-80
2024/04/03 06:27:43;;;;;;;8.27;1.42;;;11.80;99.90;;;;;;6197230;28;20050;-79
2024/04/03 06:30:44;;;;;;;7.03;1.30;;;11.70;99.90;;;;;;6191806;28;20588;-79
2024/04/03 06:33:44;;;;;;;6.28;1.10;;;11.70;99.90;;;;;;6197115;28;20422;-79
2024/04/03 06:36:45;;;;;;;5.55;1.13;;;11.70;99.90;;;;;;6196893;28;20453;-79
2024/04/03 06:39:46;;;;;;;4.90;1.08;;;11.70;99.90;;;;;;6180499;28;20046;-81
2024/04/03 06:42:46;;;;;;;4.53;1.00;;;11.70;99.90;;;;;;6181183;28;20069;-81
2024/04/03 06:45:47;;;;;;;6.43;1.10;;;11.70;99.90;;;;;;6174992;28;20429;-81
2024/04/03 06:48:48;;;;;;;4.78;1.00;;;11.70;99.90;;;;;;6196645;28;20065;-80
2024/04/03 06:51:48;;;;;;;4.25;1.05;;;11.70;99.90;;;;;;6180298;28;20058;-80
2024/04/03 06:54:49;;;;;;;3.95;0.80;;;11.70;99.90;;;;;;6196717;28;20182;-79
2024/04/03 06:57:50;;;;;;;5.07;0.93;;;11.80;99.90;;;;;;6196561;28;20062;-80
2024/04/03 07:00:50;;;;;;;3.75;0.90;;;11.80;99.90;;;;;;6177870;28;20054;-80
2024/04/03 07:03:51;;;;;;;4.80;0.90;;;11.80;99.90;;;;;;6172047;28;20109;-80
2024/04/03 07:06:52;;;;;;;4.03;0.88;;;11.90;99.90;;;;;;6193745;28;20081;-80
2024/04/03 07:09:53;;;;;;;5.47;1.15;;;11.80;99.90;;;;;;6196107;28;20054;-80
2024/04/03 07:12:53;;;;;;;4.72;1.20;;;11.90;99.90;;;;;;6179886;28;20054;-78
2024/04/03 07:15:54;;;;;;;7.90;1.20;;;12.10;99.90;;;;;;6191117;28;20085;-80
2024/04/03 07:18:55;;;;;;;5.32;1.33;;;12.30;99.90;;;;;;6171573;28;20055;-79
2024/04/03 07:21:55;;;;;;;6.80;1.40;;;12.40;99.90;;;;;;6195450;28;20057;-79
2024/04/03 07:24:56;;;;;;;6.68;1.33;;;12.50;99.90;;;;;;6195870;28;20054;-79
2024/04/03 07:27:57;;;;;;;6.15;1.20;;;12.50;99.90;;;;;;6194944;28;20100;-78
2024/04/03 07:30:58;;;;;;;7.60;1.45;;;12.40;99.90;;;;;;6177341;28;20490;-79
2024/04/03 07:33:58;;;;;;;7.18;1.52;;;12.40;99.90;;;;;;6171176;28;20054;-78
2024/04/03 07:36:59;;;;;;;4.18;1.25;;;12.40;99.90;;;;;;6194744;28;20054;-79
2024/04/03 07:40:00;;;;;;;4.80;1.15;;;12.50;99.90;;;;;;6179211;28;20592;-78
2024/04/03 07:43:00;;;;;;;5.32;1.00;;;12.60;99.90;;;;;;6178285;28;20561;-79
2024/04/03 07:46:01;;;;;;;6.03;1.17;;;12.60;99.90;;;;;;6181387;28;20062;-79
2024/04/03 07:49:01;;;;;;;5.03;1.15;;;12.60;99.90;;;;;;6178833;28;20057;-82
2024/04/03 07:52:02;;;;;;;6.45;1.10;;;12.60;99.90;;;;;;6195262;28;20073;-79
2024/04/03 07:55:03;;;;;;;4.38;0.90;;;12.60;99.90;;;;;;6194815;28;20486;-79
2024/04/03 07:58:04;;;;;;;4.03;0.93;;;12.60;99.90;;;;;;6194227;28;20073;-80
2024/04/03 08:01:04;;;;;;;2.70;0.80;;;12.70;99.90;;;;;;6184679;28;20054;-81
2024/04/03 08:04:05;;;;;;;3.67;1.00;;;12.80;99.90;;;;;;6170222;28;20058;-79
2024/04/03 08:07:06;;;;;;;4.72;0.90;;;12.90;99.90;;;;;;6191625;28;20061;-79
2024/04/03 08:10:06;;;;;;;5.28;0.90;;;13.20;99.90;;;;;;6178498;28;20058;-79
2024/04/03 08:13:07;;;;;;;3.85;0.93;;;13.80;99.90;;;;;;6177919;28;20426;-81
2024/04/03 08:16:08;;;;;;;2.60;0.75;;;14.40;99.90;;;;;;6194402;28;20061;-79
2024/04/03 08:19:09;;;;;;;3.50;0.73;;;15.20;99.90;;;;;;6154873;28;20059;-80
2024/04/03 08:22:09;;;;;;;3.42;0.73;;;15.70;98.90;;;;;;6193427;28;20054;-80
2024/04/03 08:25:11;;;;;;;2.60;0.60;;;15.40;85.50;;;;;;6178218;28;20481;-81
2024/04/03 08:28:14;;;;;;;5.00;0.88;;;14.80;86.80;;;;;;6193730;28;20054;-81
2024/04/03 08:31:19;;;;;;;5.28;1.42;;;14.60;94.70;;;;;;6173916;28;20436;-79
2024/04/03 08:34:20;;;;;;;2.45;0.70;;;14.30;93.00;;;;;;6177711;28;20065;-78
2024/04/03 08:37:21;;;;;;;3.63;0.82;;;14.20;97.60;;;;;;6193674;28;20061;-79
2024/04/03 08:40:23;;;;;;;4.35;1.00;;;14.00;94.00;;;;;;6177631;28;20076;-79
2024/04/03 08:43:23;;;;;;;6.78;1.20;;;14.30;94.90;;;;;;6159511;28;20723;-81
2024/04/03 08:46:24;;;;;;;7.45;1.30;;;14.10;87.00;;;;;;6193532;28;20102;-81
2024/04/03 08:49:24;;;;;;;7.80;1.50;;;14.10;92.10;;;;;;6193592;28;20059;-81
2024/04/03 08:52:25;;;;;;;6.07;1.25;;;14.00;93.30;;;;;;6193685;28;20054;-81
2024/04/03 08:55:26;;;;;;;6.22;1.33;;;14.00;92.80;;;;;;6177608;28;20058;-81
2024/04/03 08:58:26;;;;;;;6.90;1.40;;;14.00;93.30;;;;;;6171890;28;20236;-80
2024/04/03 09:01:27;;;;;;;6.45;1.30;;;13.90;93.90;;;;;;6177392;28;20080;-79
2024/04/03 09:04:28;;;;;;;7.57;1.30;;;14.20;96.70;;;;;;6169541;28;20055;-79
2024/04/03 09:07:28;;;;;;;8.15;1.55;;;14.30;88.70;;;;;;6190406;28;20054;-79
2024/04/03 09:10:29;;;;;;;5.50;1.17;;;14.30;84.50;;;;;;6193521;28;20104;-80
2024/04/03 09:13:30;;;;;;;10.15;1.13;;;15.40;73.30;;;;;;6175546;28;20100;-80
2024/04/03 09:16:31;;;;;;;5.78;1.00;;;15.60;68.50;;;;;;6193049;28;20150;-80
2024/04/03 09:19:32;;;;;;;3.85;0.75;;;15.60;56.20;;;;;;6193147;28;20432;-81
2024/04/03 09:22:33;;;;;;;5.68;1.00;;;15.00;36.10;;;;;;6193773;28;20054;-81
2024/04/03 09:25:33;;;;;;;4.65;0.98;;;14.50;72.90;;;;;;6193415;28;20133;-80
2024/04/03 09:28:34;;;;;;;5.55;1.23;;;14.40;78.40;;;;;;6174733;28;20410;-80
2024/04/03 09:31:35;;;;;;;8.38;1.48;;;14.20;91.00;;;;;;6192655;28;20050;-81
2024/04/03 09:34:35;;;;;;;7.78;1.27;;;14.00;91.00;;;;;;6178819;28;20058;-80
2024/04/03 09:37:36;;;;;;;5.28;1.05;;;13.90;96.00;;;;;;6197914;28;20109;-80
2024/04/03 09:40:37;;;;;;;9.00;1.58;;;13.90;93.40;;;;;;6198172;28;20060;-80
2024/04/03 09:43:37;;;;;;;4.38;1.10;;;13.80;95.70;;;;;;6179303;28;20492;-81
2024/04/03 09:46:38;;;;;;;4.88;1.00;;;14.00;98.20;;;;;;6197576;28;20073;-81
2024/04/03 09:49:38;;;;;;;5.18;0.90;;;14.40;95.90;;;;;;6181935;28;20061;-81
2024/04/03 09:52:39;;;;;;;3.95;1.00;;;14.60;93.10;;;;;;6181494;28;20054;-81
2024/04/03 09:55:40;;;;;;;4.03;0.90;;;14.80;87.10;;;;;;6197879;28;20050;-81
2024/04/03 09:58:40;;;;;;;3.28;1.00;;;15.20;90.60;;;;;;6179258;28;20414;-80
2024/04/03 10:01:41;;;;;;;3.70;0.80;;;15.00;87.90;;;;;;6197415;28;20054;-80
2024/04/03 10:04:42;;;;;;;4.07;0.88;;;14.60;87.40;;;;;;6197430;28;20054;-80
2024/04/03 10:07:42;;;;;;;5.22;1.00;;;14.30;92.60;;;;;;6195404;28;20066;-79
2024/04/03 10:10:43;;;;;;;4.13;1.05;;;14.20;97.70;;;;;;6197484;28;20058;-80
2024/04/03 10:13:44;;;;;;;3.58;0.80;;;14.10;97.70;;;;;;6197045;28;20085;-80
2024/04/03 10:16:45;;;;;;;2.97;0.80;;;14.10;98.20;;;;;;6197830;28;20058;-80
2024/04/03 10:19:45;;;;;;;7.75;3.00;;;14.10;99.30;;;;;;6197353;28;20069;-79
2024/04/03 10:22:46;;;;;;;3.78;0.80;;;14.10;95.80;;;;;;6197469;28;20062;-80
2024/04/03 10:25:47;;;;;;;3.17;0.85;;;14.10;97.70;;;;;;6197343;28;20054;-79
2024/04/03 10:28:48;;;;;;;4.03;0.80;;;13.80;98.50;;;;;;6175788;28;20066;-80
2024/04/03 10:31:49;;;;;;;3.75;0.95;;;13.70;99.90;;;;;;6197081;28;20069;-79
2024/04/03 10:34:50;;;;;;;3.15;0.82;;;13.70;99.90;;;;;;6180773;28;20058;-80
2024/04/03 10:37:50;;;;;;;4.93;1.45;;;14.00;99.90;;;;;;6180710;28;20116;-79
2024/04/03 10:40:51;;;;;;;3.03;1.00;;;14.10;99.70;;;;;;6196851;28;20723;-80
2024/04/03 10:43:52;;;;;;;5.63;1.23;;;14.30;94.50;;;;;;6169982;28;20069;-80
2024/04/03 10:46:53;;;;;;;6.05;1.30;;;14.50;95.50;;;;;;6197072;28;20058;-80
2024/04/03 10:49:53;;;;;;;6.63;1.40;;;14.50;93.50;;;;;;6196580;28;20773;-80
2024/04/03 10:52:54;;;;;;;7.22;1.95;;;14.40;91.00;;;;;;6196936;28;20101;-80
2024/04/03 10:55:55;;;;;;;9.02;1.92;;;14.30;90.90;;;;;;6180928;28;20058;-80
2024/04/03 10:58:57;;;;;;;7.47;1.92;;;14.30;91.40;;;;;;6191921;28;20058;-79
2024/04/03 11:01:58;;;;;;;6.60;1.80;;;14.10;94.10;;;;;;6197505;28;20056;-80
2024/04/03 11:04:58;;;;;;;6.93;1.70;;;13.90;95.90;;;;;;6197589;28;20062;-80
2024/04/03 11:08:01;;;;;;;7.15;1.75;;;14.10;95.50;;;;;;6195053;28;20750;-79
2024/04/03 11:11:02;;;;;;;7.38;1.70;;;13.90;96.40;;;;;;6180532;28;20058;-80
2024/04/03 11:14:03;;;;;;;6.28;1.48;;;14.50;96.50;;;;;;6174709;28;20398;-80
2024/04/03 11:17:07;;;;;;;9.55;1.42;;;15.80;79.40;;;;;;6195909;28;20069;-80
2024/04/03 11:20:08;;;;;;;6.07;1.38;;;16.70;43.00;;;;;;6195841;28;20050;-80
2024/04/03 11:23:08;;;;;;;5.35;1.27;;;17.50;28.40;;;;;;6196021;28;20569;-79
2024/04/03 11:26:09;;;;;;;4.93;1.30;;;17.90;1.80;;;;;;6195312;28;20062;-80
2024/04/03 11:29:10;;;;;;;4.07;1.10;;;18.10;1.00;;;;;;6164517;28;20096;-80
2024/04/03 11:32:10;;;;;;;3.47;0.90;;;17.80;1.00;;;;;;6195847;28;20513;-80
2024/04/03 11:35:11;;;;;;;3.50;1.10;;;17.20;1.00;;;;;;6195512;28;20065;-80
2024/04/03 11:38:12;;;;;;;3.00;0.95;;;16.90;4.40;;;;;;6195449;28;20109;-80
2024/04/03 11:41:13;;;;;;;4.50;0.77;;;16.20;19.60;;;;;;6195550;28;20545;-79
2024/04/03 11:44:17;;;;;;;4.63;0.88;;;15.50;72.70;;;;;;6189879;28;20066;-80
2024/04/03 11:47:17;;;;;;;3.95;0.98;;;15.00;91.00;;;;;;6194818;28;20128;-77
2024/04/03 11:50:18;;;;;;;3.65;0.90;;;15.00;92.20;;;;;;6178615;28;20054;-80
2024/04/03 11:53:19;;;;;;;3.45;1.00;;;14.70;91.20;;;;;;6195397;28;20064;-79
2024/04/03 11:56:20;;;;;;;2.65;0.80;;;14.80;89.90;;;;;;6194043;28;20062;-77
2024/04/03 11:59:21;;;;;;;4.00;1.00;;;14.90;90.10;;;;;;6163749;28;20054;-77
2024/04/03 12:02:21;;;;;;;3.40;1.00;;;15.50;90.70;;;;;;6195046;28;20054;-78
2024/04/03 12:05:22;;;;;;;4.78;1.50;;;15.50;80.60;;;;;;6194863;28;20109;-78
2024/04/03 12:08:23;;;;;;;3.72;1.10;;;15.10;89.10;;;;;;6193133;28;20058;-78
2024/04/03 12:11:23;;;;;;;3.50;1.00;;;15.10;79.00;;;;;;6194678;28;20153;-78
2024/04/03 12:14:24;;;;;;;3.53;1.20;;;15.30;64.00;;;;;;6189163;28;20563;-79
2024/04/03 12:17:25;;;;;;;2.42;0.88;;;16.20;39.00;;;;;;6194273;28;20093;-78
2024/04/03 12:20:30;;;;;;;2.30;0.82;;;16.60;5.70;;;;;;6194587;28;20062;-78
2024/04/03 12:23:31;;;;;;;2.53;0.73;;;16.30;13.10;;;;;;6170263;28;20054;-78
2024/04/03 12:26:32;;;;;;;2.25;0.70;;;16.00;4.90;;;;;;6177888;28;20054;-78
2024/04/03 12:29:32;;;;;;;2.67;0.70;;;15.80;8.00;;;;;;6188852;28;20108;-77
2024/04/03 12:32:33;;;;;;;2.22;0.70;;;15.40;1.00;;;;;;6177734;28;20055;-79
2024/04/03 12:35:34;;;;;;;2.78;0.75;;;14.70;1.00;;;;;;6194370;28;20096;-77
2024/04/03 12:38:35;;;;;;;1.80;0.50;;;14.50;8.20;;;;;;6194462;28;20073;-76
2024/04/03 12:41:35;;;;;;;2.25;0.70;;;14.50;1.00;;;;;;6194674;28;20050;-77
2024/04/03 12:44:36;;;;;;;1.95;0.68;;;14.50;9.70;;;;;;6188310;28;20533;-78
2024/04/03 12:47:36;;;;;;;1.77;0.70;;;14.60;9.10;;;;;;6177167;28;20058;-78
2024/04/03 12:50:37;;;;;;;1.77;0.60;;;15.00;1.00;;;;;;6193570;28;20050;-79
2024/04/03 12:53:38;;;;;;;1.65;0.57;;;14.80;1.00;;;;;;6193469;28;20137;-78
2024/04/03 12:56:38;;;;;;;2.55;0.68;;;14.70;1.00;;;;;;6193444;28;20078;-78
2024/04/03 12:59:41;;;;;;;1.52;0.57;;;14.60;1.00;;;;;;6187966;28;20061;-80
2024/04/03 13:02:44;;;;;;;2.10;0.50;;;14.50;1.00;;;;;;6193394;28;20054;-79
2024/04/03 13:05:45;;;;;;;1.60;0.63;;;14.40;1.00;;;;;;6193798;28;20062;-84
2024/04/03 13:08:46;;;;;;;3.17;0.90;;;14.40;1.70;;;;;;6174341;28;20482;-80
2024/04/03 13:11:46;;;;;;;3.15;0.75;;;14.50;9.60;;;;;;6193178;28;20171;-79
2024/04/03 13:14:47;;;;;;;2.08;0.70;;;14.30;9.50;;;;;;6171906;28;20065;-79
2024/04/03 13:17:47;;;;;;;2.75;0.80;;;14.20;10.50;;;;;;6192955;28;20453;-78
2024/04/03 13:20:48;;;;;;;2.90;0.80;;;14.40;7.90;;;;;;6193462;28;20086;-78
2024/04/03 13:23:50;;;;;;;2.55;0.85;;;14.40;2.10;;;;;;6193468;28;20667;-78
2024/04/03 13:26:51;;;;;;;1.70;0.60;;;14.50;3.60;;;;;;6176834;28;20070;-78
2024/04/03 13:29:52;;;;;;;2.33;0.60;;;14.20;1.00;;;;;;6187904;28;20153;-78
2024/04/03 13:32:52;;;;;;;2.08;0.68;;;14.20;1.00;;;;;;6193614;28;20485;-77
2024/04/03 13:35:53;;;;;;;3.00;0.70;;;14.20;1.00;;;;;;6193192;28;20517;-77
2024/04/03 13:38:54;;;;;;;1.92;0.63;;;14.30;1.00;;;;;;6193360;28;20058;-77
2024/04/03 13:41:54;;;;;;;3.53;0.75;;;14.30;1.00;;;;;;6193272;28;20171;-77
2024/04/03 13:44:55;;;;;;;2.92;0.70;;;14.30;1.00;;;;;;6187147;28;20058;-78
2024/04/03 13:47:55;;;;;;;2.00;0.60;;;14.20;2.50;;;;;;6192894;28;20058;-78
2024/04/03 13:50:56;;;;;;;1.63;0.60;;;14.20;4.40;;;;;;6193344;28;20051;-79
2024/04/03 13:53:57;;;;;;;2.80;0.80;;;14.40;5.30;;;;;;6193350;28;20050;-78
2024/04/03 13:56:58;;;;;;;2.60;0.73;;;14.90;1.00;;;;;;6176674;28;20549;-79
2024/04/03 13:59:59;;;;;;;2.15;0.70;;;15.30;1.00;;;;;;6171410;28;20054;-78
2024/04/03 14:02:59;;;;;;;2.83;0.80;;;15.30;1.00;;;;;;6176664;28;20058;-78
2024/04/03 14:06:00;;;;;;;5.97;1.13;;;15.10;1.00;;;;;;6176196;28;20065;-77
2024/04/03 14:09:03;;;;;;;1.98;0.70;;;15.00;1.00;;;;;;6190956;28;20218;-78
2024/04/03 14:12:03;;;;;;;3.00;0.70;;;14.80;1.00;;;;;;6192526;28;20054;-77
2024/04/03 14:15:04;;;;;;;2.17;0.60;;;14.70;1.00;;;;;;6166702;28;20058;-78
2024/04/03 14:18:05;;;;;;;2.83;0.77;;;14.60;1.00;;;;;;6176875;28;20062;-79
2024/04/03 14:21:06;;;;;;;3.60;0.60;;;14.80;1.00;;;;;;6196357;28;20564;-79
2024/04/03 14:24:06;;;;;;;3.63;0.90;;;15.00;1.00;;;;;;6197568;28;20065;-78
2024/04/03 14:27:07;;;;;;;1.90;0.60;;;14.90;1.00;;;;;;6196869;28;20051;-78
2024/04/03 14:30:10;;;;;;;2.25;0.80;;;14.90;1.00;;;;;;6175628;28;20050;-79
2024/04/03 14:33:10;;;;;;;2.53;0.70;;;14.80;1.00;;;;;;6197327;28;20062;-78
2024/04/03 14:36:12;;;;;;;2.75;1.00;;;14.60;1.00;;;;;;6180741;28;20532;-79
2024/04/03 14:39:14;;;;;;;2.03;0.70;;;14.50;1.00;;;;;;6196868;28;20117;-78
2024/04/03 14:42:15;;;;;;;3.15;0.80;;;14.50;1.00;;;;;;6196365;28;20449;-79
2024/04/03 14:45:15;;;;;;;2.60;0.70;;;14.40;1.00;;;;;;6169866;28;20062;-79
2024/04/03 14:48:16;;;;;;;3.05;0.70;;;14.20;1.00;;;;;;6196655;28;20061;-78
2024/04/03 14:51:17;;;;;;;5.97;1.90;;;14.20;1.00;;;;;;6196361;28;20066;-78
2024/04/03 14:54:17;;;;;;;13.20;6.57;;;14.20;1.00;;;;;;6180159;28;20067;-78
2024/04/03 14:57:18;;;;;;;13.55;4.88;;;14.20;1.00;;;;;;6196598;28;20064;-78
2024/04/03 15:00:18;;;;;;;14.93;4.80;;;14.20;1.00;;;;;;6195958;28;20058;-79
2024/04/03 15:03:19;;;;;;;7.35;3.30;;;14.30;1.00;;;;;;6196146;28;20151;-80
2024/04/03 15:06:20;;;;;;;5.25;2.00;;;14.30;1.00;;;;;;6196090;28;20054;-79
2024/04/03 15:09:21;;;;;;;4.82;1.40;;;14.50;1.00;;;;;;6194639;28;20062;-79
2024/04/03 15:12:22;;;;;;;3.88;0.80;;;14.40;1.00;;;;;;6195875;28;20494;-80
2024/04/03 15:15:22;;;;;;;2.97;0.70;;;14.40;1.00;;;;;;6190763;28;20387;-79
2024/04/03 15:18:23;;;;;;;2.00;0.63;;;14.50;1.00;;;;;;6196084;28;20604;-79
2024/04/03 15:21:24;;;;;;;4.60;0.80;;;14.40;1.00;;;;;;6195927;28;20552;-79
2024/04/03 15:24:26;;;;;;;3.53;0.90;;;14.40;1.00;;;;;;6195988;28;20098;-79
2024/04/03 15:27:26;;;;;;;4.57;1.00;;;14.60;1.00;;;;;;6195793;28;20065;-80
2024/04/03 15:30:27;;;;;;;3.58;0.80;;;14.40;1.00;;;;;;6185333;28;20488;-77
2024/04/03 15:33:28;;;;;;;7.68;1.10;;;14.40;1.00;;;;;;6195711;28;20138;-77
2024/04/03 15:36:30;;;;;;;4.13;0.90;;;14.40;1.00;;;;;;6195576;28;20149;-78
2024/04/03 15:39:34;;;;;;;2.92;0.82;;;14.50;1.00;;;;;;6195617;28;20117;-78
2024/04/03 15:42:35;;;;;;;3.35;0.90;;;14.40;1.00;;;;;;6195560;28;20780;-77
2024/04/03 15:45:38;;;;;;;3.17;1.15;;;14.30;1.00;;;;;;6183161;28;20058;-77